This is the latest recevied weather packets stored in our database for station/object DC4AT. If no packets are shown the sender has not sent any weather packets the latest 10 day(s).
| Time | Temp. | Humidity | Pressure | Rain* | Wind** | Luminosity | Snow |
|---|---|---|---|---|---|---|---|
| 1787827057 | 24.44° C | 65% | 1014.4 hPa | 0 mm | - | 478 W/m² | - |
| 1787826457 | 23.89° C | 67% | 1014.7 hPa | 0 mm | - | 526 W/m² | - |
| 1787825857 | 23.89° C | 69% | 1014.9 hPa | 0 mm | - | 504 W/m² | - |
| 1787825257 | 23.33° C | 69% | 1015.2 hPa | 0 mm | - | 536 W/m² | - |
| 1787824657 | 23.33° C | 70% | 1015.3 hPa | 0 mm | - | 499 W/m² | - |
| 1787824057 | 22.78° C | 70% | 1015.5 hPa | 0 mm | - | 527 W/m² | - |
| 1787823458 | 22.78° C | 71% | 1015.7 hPa | 0 mm | - | 536 W/m² | - |
| 1787822858 | 22.78° C | 72% | 1015.8 hPa | 0 mm | - | 283 W/m² | - |
| 1787822257 | 22.22° C | 72% | 1015.8 hPa | 0 mm | - | 497 W/m² | - |
| 1787821658 | 21.67° C | 75% | 1015.9 hPa | 0 mm | - | 536 W/m² | - |
| 1787821058 | 21.67° C | 76% | 1016 hPa | 0 mm | - | 320 W/m² | - |
| 1787820458 | 21.11° C | 76% | 1016 hPa | 0 mm | - | 461 W/m² | - |
| 1787819858 | 20.56° C | 78% | 1016 hPa | 0 mm | - | 496 W/m² | - |
| 1787819258 | 20° C | 80% | 1015.9 hPa | 0 mm | - | 487 W/m² | - |
| 1787818658 | 19.44° C | 81% | 1016.3 hPa | 0 mm | - | 390 W/m² | - |
| 1787818058 | 18.89° C | 83% | 1016.4 hPa | 0 mm | - | 360 W/m² | - |
| 1787817458 | 18.89° C | 83% | 1016.3 hPa | 0 mm | - | 297 W/m² | - |
| 1787816858 | 18.33° C | 84% | 1016.3 hPa | 0 mm | - | 283 W/m² | - |
| 1787816258 | 17.78° C | 85% | 1016.3 hPa | 0 mm | - | 257 W/m² | - |
| 1787815658 | 17.22° C | 86% | 1016.2 hPa | 0 mm | - | 209 W/m² | - |
| 1787815058 | 16.67° C | 86% | 1016.3 hPa | 0 mm | - | 230 W/m² | - |
| 1787814458 | 16.11° C | 86% | 1016.3 hPa | 0 mm | - | 199 W/m² | - |
| 1787813858 | 16.11° C | 86% | 1016.3 hPa | 0 mm | - | 197 W/m² | - |
| 1787813258 | 15.56° C | 86% | 1016.3 hPa | 0 mm | - | 214 W/m² | - |
| 1787812658 | 15.56° C | 85% | 1016.4 hPa | 0 mm | - | 149 W/m² | - |
* Rain latest hour (hover to see other rain measurements)
** Current wind speed in m/s (hover to see current wind gust speed)